Maxey, Colorado
Current Conditions -  °F | °C
As of 1:53 PM on Thursday 18 Dec 2014 (Local Time) from KLAA Reporting Station
Clear Clear  
Wind Chill: 44°   Ceiling: Unl
Heat Index: 44°   Visibility: 10mi
Dew Point: 29°   Wind: 0mph
Humidity: 55%   Direction: NA
Pressure: 30.03"   Gusts: NA
Location:  37.4412°N, 102.623°W
Report Text: KLAA 182053Z AUTO 00000KT 10SM CLR 07/M02 A3003 RMK AO2 SLP175 T00671017 56019
Loading
Personal Weather Stations






























Interactive Weather Map New forecast layout! Learn more

10-Day Weather Forecast

Advertisements
Track Severe Weather on mobile